El Paso, TX

12:04 AM MDT on July 31, 2016 (GMT -0600)
El Paso International | | Change Station

Elev 3917 ft 31.81 °N, 106.38 °W | Updated 13 minutes ago

Scattered Clouds
Scattered Clouds
84 °F
Feels Like 83 °F
N
6
Wind Variable Wind from South

Today
High -- | Low -- °F
--% Chance of Precip.
Yesterday
High -- | Low -- °F
Precip. -- in
Pressure 29.77 in
Visibility 10.0 miles
Clouds Few 10000 ft
Scattered Clouds 25000 ft
Heat Index 83 °F
Dew Point 56 °F
Humidity 38%
Rainfall 0.00 in
Snow Depth Not available.
6:20 AM 8:02 PM
Waning Crescent, 8% visible
METAR KELP 310551Z 17005KT 10SM FEW100 SCT250 29/13 A3001 RMK AO2 SLP080 T02890133 10350 20283 51020
Pressure 29.77 in
Visibility 10.0 miles
Clouds Few 10000 ft
Scattered Clouds 25000 ft
Heat Index 83 °F
Dew Point 56 °F
Humidity 38%
Rainfall 0.00 in
Snow Depth Not available.
6:20 AM 8:02 PM
Waning Crescent, 8% visible
METAR KELP 310551Z 17005KT 10SM FEW100 SCT250 29/13 A3001 RMK AO2 SLP080 T02890133 10350 20283 51020

10-Day Weather Forecast

Almanac

Astronomy

Jul. 31, 2016 Rise Set
Actual Time
Civil Twilight
Nautical Twilight
Astronomical Twilight
Moon
Length of Visible Light
Length of Day
Tomorrow will be .
, % of the Moon is Illuminated

Today's Extremes

State Highs State Lows

Community

WunderPhotos

Upload Photos

1,928,766 photos uploaded!

WunderBlog® & News

Nearby

Air Quality

  Air Quality AQ Index Pollutant
Not available.

Snow Depth

Station Depth Elevation

Earthquake Activity

City Distance Mag. Time & Date
Minimum magnitude displayed is 2.5.

Coastal Water Temperatures

Place Temperature

Stations

Nearby Weather Stations

Station Location Temp. Windchill Dew Point Humidity Wind Precip. Elev Updated Type
                   

Watches & Warnings

There are currently no watches in effect.